Latest Coastal Weather Observations for Middle Percy Island

IDQ60701

Issued at 11:52 pm EST Sunday 20 October 2019 (issued every 10 minutes, with the page automatically refreshed every 10 minutes)

About coastal observations | Map of coastal stations | Coastal observations for QLD | Marine services | Other Formats
Station Details ID: 200001 Name: MIDDLE PERCY ISLAND Lat: -21.66 Lon: 150.27 Height: 208.7 m
Data from the previous 72 hours. | See also: Recent months at Middle Percy Island
Date/Time
EST
Wind Sea
Height
m
Swell Vis
km
Cloud Weather Temp
°C
Press
hPa
Rain since
9am
mm
Dir  Spd
kts
Gust
kts
Height
m
Period
s
Dir
20/11:30pm ESE 5 7 - - - - - - - 21.8 1017.8 0.0
20/11:00pm ESE 3 5 - - - - - - - 21.8 1017.8 0.0
20/10:30pm E 3 4 - - - - - - - 21.9 1017.7 0.0
20/10:00pm NE 5 7 - - - - - - - 21.9 1017.5 0.0
20/09:30pm NE 4 6 - - - - - - - 21.9 1017.4 0.0
20/09:00pm NE 6 8 - - - - - - - 22.3 1017.2 0.0
20/08:30pm NE 8 12 - - - - - - - 22.4 1016.6 0.0
20/08:00pm NE 7 11 - - - - - - - 22.4 1016.6 0.0
20/07:30pm NE 6 11 - - - - - - - 22.5 1016.5 0.0
20/07:00pm ENE 5 7 - - - - - - - 22.4 1016.1 0.0
20/06:30pm NE 6 9 - - - - - - - 22.6 1015.7 0.0
20/06:00pm NE 5 7 - - - - - - - 22.8 1015.6 0.0
20/05:30pm NE 6 8 - - - - - - - 23.3 1015.1 0.0
20/05:00pm NNE 6 8 - - - - - - - 24.2 1015.0 0.0
20/04:30pm ENE 4 7 - - - - - - - 24.7 1014.8 0.0
20/04:00pm NNE 5 9 - - - - - - - 25.2 1014.5 0.0
20/03:30pm NNE 4 7 - - - - - - - 25.5 1014.3 0.0
20/03:00pm NNE 6 8 - - - - - - - 24.9 1014.3 0.0
20/02:30pm NNE 7 10 - - - - - - - 24.6 1014.3 0.0
20/02:00pm N 6 9 - - - - - - - 25.3 1014.8 0.0
20/01:30pm N 7 9 - - - - - - - 24.5 1015.2 0.0
20/01:00pm N 6 8 - - - - - - - 24.6 1015.6 0.0
20/12:30pm N 5 7 - - - - - - - 24.2 1016.1 0.0
20/12:00pm N 3 5 - - - - - - - 23.9 1016.3 0.0
20/11:30am S 2 4 - - - - - - - 24.1 1016.6 0.0
20/11:00am NNW 1 3 - - - - - - - 23.9 1016.8 0.0
20/10:30am NNW 3 5 - - - - - - - 23.9 1016.9 0.0
20/10:00am NNE 2 5 - - - - - - - 24.4 1017.1 0.0
20/09:30am N 7 11 - - - - - - - 25.0 1017.0 0.0
20/09:00am N 8 11 - - - - - - - 23.9 1017.0 0.0
20/08:30am N 8 11 - - - - - - - 23.9 1016.8 0.0
20/08:00am N 8 12 - - - - - - - 23.4 1016.5 0.0
20/07:30am NE 5 8 - - - - - - - 22.7 1016.7 0.0
20/07:00am NE 6 9 - - - - - - - 22.2 1016.6 0.0
20/06:30am NE 6 8 - - - - - - - 22.1 1016.5 0.0
20/06:00am NE 5 7 - - - - - - - 21.9 1016.1 0.0
20/05:30am NNE 5 7 - - - - - - - 21.4 1015.9 0.0
20/05:00am NNE 4 5 - - - - - - - 21.5 1015.8 0.0
20/04:30am N 4 4 - - - - - - - 21.8 1015.5 0.0
20/04:00am NNE 2 3 - - - - - - - 21.8 1015.5 0.0
20/03:30am ESE 3 8 - - - - - - - 21.8 1015.3 0.0
20/03:00am NNW 11 17 - - - - - - - 21.7 1014.2 0.0
20/02:30am NNW 7 9 - - - - - - - 21.6 1014.7 0.0
20/02:00am NNW 14 21 - - - - - - - 21.8 1014.0 0.0
20/01:30am NNW 14 20 - - - - - - - 21.7 1014.1 0.0
20/01:00am N 12 17 - - - - - - - 21.8 1014.9 0.0
20/12:30am N 12 17 - - - - - - - 21.8 1014.9 0.0
20/12:00am N 12 18 - - - - - - - 21.8 1015.2 0.0
 
Date/Time
EST
Wind Sea
Height
m
Swell Vis
km
Cloud Weather Temp
°C
Press
hPa
Rain since
9am
mm
Dir  Spd
kts
Gust
kts
Height
m
Period
s
Dir
19/11:30pm N 10 15 - - - - - - - 21.9 1015.7 0.0
19/11:00pm N 11 16 - - - - - - - 22.0 1015.9 0.0
19/10:30pm N 10 15 - - - - - - - 22.0 1016.0 0.0
19/10:00pm N 9 12 - - - - - - - 22.1 1016.3 0.0
19/09:30pm N 6 11 - - - - - - - 22.3 1016.2 0.0
19/09:00pm N 11 16 - - - - - - - 22.2 1015.8 0.0
19/08:30pm N 16 22 - - - - - - - 22.1 1015.0 0.0
19/08:00pm N 17 25 - - - - - - - 22.2 1014.8 0.0
19/07:30pm N 17 23 - - - - - - - 22.2 1014.3 0.0
19/07:00pm N 17 22 - - - - - - - 22.3 1014.2 0.0
19/06:30pm N 18 23 - - - - - - - 22.3 1014.1 0.0
19/06:00pm N 17 22 - - - - - - - 22.4 1013.7 0.0
19/05:30pm N 19 27 - - - - - - - 22.7 1013.3 0.0
19/05:00pm N 19 26 - - - - - - - 23.2 1013.1 0.0
19/04:30pm N 16 23 - - - - - - - 23.8 1013.2 0.0
19/04:00pm N 16 22 - - - - - - - 24.3 1013.3 0.0
19/03:30pm N 16 24 - - - - - - - 24.3 1013.5 0.0
19/03:00pm N 13 17 - - - - - - - 24.5 1014.6 0.0
19/02:30pm NNE 13 17 - - - - - - - 24.5 1015.2 0.0
19/02:00pm N 11 16 - - - - - - - 25.6 1015.5 0.0
19/01:30pm N 11 16 - - - - - - - 25.3 1015.6 0.0
19/01:00pm N 11 15 - - - - - - - 25.8 1016.1 0.0
19/12:30pm N 14 17 - - - - - - - 24.9 1016.1 0.0
19/12:00pm N 12 16 - - - - - - - 25.1 1016.6 0.0
19/11:30am NNE 13 19 - - - - - - - 25.5 1016.6 0.0
19/11:00am N 11 17 - - - - - - - 25.4 1017.2 0.0
19/10:30am N 10 15 - - - - - - - 25.8 1017.3 0.0
19/10:00am N 12 17 - - - - - - - 25.0 1017.5 0.0
19/09:30am N 12 19 - - - - - - - 24.9 1017.6 0.0
19/09:00am N 13 18 - - - - - - - 24.5 1017.7 0.0
19/08:30am N 13 18 - - - - - - - 24.1 1017.4 0.0
19/08:00am N 13 19 - - - - - - - 23.7 1017.3 0.0
19/07:30am N 10 17 - - - - - - - 23.9 1017.3 0.0
19/07:00am N 11 17 - - - - - - - 22.5 1017.2 0.0
19/06:30am N 11 16 - - - - - - - 22.4 1016.8 0.0
19/06:00am N 11 17 - - - - - - - 22.2 1016.7 0.0
19/05:30am N 10 16 - - - - - - - 22.1 1016.4 0.0
19/05:00am N 11 20 - - - - - - - 22.1 1015.9 0.0
19/04:30am N 12 18 - - - - - - - 21.9 1015.4 0.0
19/04:00am N 10 18 - - - - - - - 21.8 1015.0 0.0
19/03:30am N 13 19 - - - - - - - 21.9 1014.5 0.0
19/03:00am N 13 19 - - - - - - - 21.9 1014.1 0.0
19/02:30am N 20 27 - - - - - - - 21.9 1012.9 0.0
19/02:00am N 17 23 - - - - - - - 22.0 1013.5 0.0
19/01:30am N 17 23 - - - - - - - 22.0 1013.7 0.0
19/01:00am N 16 24 - - - - - - - 22.1 1014.2 0.0
19/12:45am N 17 27 - - - - - - - 22.1 1014.5 0.0
19/12:30am N 23 31 - - - - - - - 22.1 1013.8 0.0
19/12:00am N 18 23 - - - - - - - 22.1 1014.7 0.0
 
Date/Time
EST
Wind Sea
Height
m
Swell Vis
km
Cloud Weather Temp
°C
Press
hPa
Rain since
9am
mm
Dir  Spd
kts
Gust
kts
Height
m
Period
s
Dir
18/11:30pm N 11 15 - - - - - - - 22.2 1016.4 0.0
18/11:00pm NNW 5 8 - - - - - - - 22.1 1017.6 0.0
18/10:30pm NNW 5 6 - - - - - - - 22.2 1018.1 0.0
18/10:00pm WSW 5 11 - - - - - - - 22.2 1018.5 0.0
18/09:56pm NW 6 15 - - - - - - - 22.1 1018.2 0.0
18/09:30pm N 13 18 - - - - - - - 22.1 1016.1 0.0
18/09:00pm N 11 16 - - - - - - - 22.1 1016.1 0.0
18/08:30pm N 13 24 - - - - - - - 22.0 1015.5 0.0
18/08:00pm N 23 28 - - - - - - - 22.1 1013.9 0.0
18/07:30pm N 23 30 - - - - - - - 22.1 1013.5 0.0
18/07:00pm N 20 27 - - - - - - - 22.1 1013.4 0.0
18/06:30pm N 19 25 - - - - - - - 22.2 1013.5 0.0
18/06:00pm N 17 23 - - - - - - - 22.4 1013.6 0.0
18/05:30pm N 17 22 - - - - - - - 22.8 1013.5 0.0
18/05:00pm N 15 22 - - - - - - - 23.2 1013.3 0.0
18/04:30pm N 18 22 - - - - - - - 23.2 1013.2 0.0
18/04:00pm N 17 22 - - - - - - - 23.7 1013.3 0.0
18/03:30pm N 13 20 - - - - - - - 24.3 1013.5 0.0
18/03:00pm N 15 19 - - - - - - - 24.2 1013.5 0.0
18/02:30pm N 12 16 - - - - - - - 25.4 1014.0 0.0
18/02:00pm N 10 14 - - - - - - - 25.4 1014.6 0.0
18/01:30pm NNE 10 15 - - - - - - - 24.9 1014.9 0.0
18/01:00pm NNE 11 14 - - - - - - - 25.1 1015.3 0.0
18/12:30pm N 9 12 - - - - - - - 25.1 1016.2 0.0
18/12:00pm N 7 11 - - - - - - - 25.3 1016.5 0.0
18/11:30am NNW 8 11 - - - - - - - 25.9 1016.8 0.0
18/11:00am NNW 8 13 - - - - - - - 26.1 1017.1 0.0
18/10:30am NW 11 16 - - - - - - - 25.0 1017.2 0.0
18/10:00am N 10 15 - - - - - - - 25.2 1017.7 0.0
18/09:30am N 12 17 - - - - - - - 25.0 1017.7 0.0
18/09:00am N 13 17 - - - - - - - 24.1 1017.9 0.0
18/08:30am N 11 17 - - - - - - - 23.6 1017.7 0.0
18/08:00am N 13 18 - - - - - - - 23.4 1017.6 0.0
18/07:30am N 16 23 - - - - - - - 23.0 1016.4 0.0
18/07:00am N 15 25 - - - - - - - 22.5 1016.1 0.0
18/06:30am N 17 24 - - - - - - - 22.2 1015.7 0.0
18/06:00am N 13 23 - - - - - - - 22.0 1015.5 0.0
18/05:30am N 12 17 - - - - - - - 21.7 1015.3 0.0
18/05:00am N 9 13 - - - - - - - 21.9 1015.7 0.0
18/04:30am N 8 16 - - - - - - - 21.9 1015.7 0.0
18/04:00am N 11 18 - - - - - - - 21.7 1015.2 0.0
18/03:30am N 11 16 - - - - - - - 21.7 1015.2 0.0
18/03:00am N 10 15 - - - - - - - 21.8 1015.5 0.0
18/02:30am N 8 12 - - - - - - - 21.7 1015.8 0.0
18/02:00am N 9 13 - - - - - - - 21.9 1016.2 0.0
18/01:30am N 7 11 - - - - - - - 21.9 1016.5 0.0
18/01:00am N 11 16 - - - - - - - 21.9 1016.2 0.0
18/12:30am N 12 16 - - - - - - - 21.8 1016.3 0.0
18/12:00am N 12 17 - - - - - - - 21.9 1016.5 0.0

Other formats

Comma delimited format used in spreadsheet applications
http://www.bom.gov.au/fwo/IDQ60701/IDQ60701.94372.axf

JavaScript Object Notation format (JSON) in row-major order
http://www.bom.gov.au/fwo/IDQ60701/IDQ60701.94372.json

Data quality

Most of these data are generated automatically and are frequently updated. Quality checks on data are not normally performed. It is possible for incorrect values to appear. Refer to information at About Latest Weather Observations and please check the disclaimer before using these data.